Latest Weather Observations for Sheoaks

IDV60901

Issued at 5:25 pm EST Monday 1 September 2014 (issued every 10 minutes, with the page automatically refreshed every 10 minutes)

About weather observations | Map of Melbourne area stations | Latest observations for Melbourne area | Other Formats
Station Details ID: 087168 Name: SHEOAKS Lat: -37.91 Lon: 144.13 Height: 236.7 m
Data from the previous 72 hours. | See also: Recent months at Sheoaks
Date/Time
EST
Tmp

°C
App
Tmp
°C
Dew
Point
°C
Rel
Hum
%
Delta-T

°C
Wind Press
QNH
hPa
Press
MSL
hPa
Rain
since
9 am
mm
Dir
 
Spd
km/h
Gust
km/h
Spd
kts
Gust
kts
01/05:00pm 7.5 3.0 6.1 91 0.6 W 19 26 10 14 1010.6 1010.7 3.8
01/04:47pm 7.9 1.6 5.7 86 1.0 W 28 54 15 29 1010.2 1010.3 3.2
01/04:30pm 10.7 7.5 8.6 87 1.0 W 15 24 8 13 1009.5 1009.6 3.0
01/04:00pm 10.5 7.9 7.7 83 1.4 W 11 15 6 8 1009.0 1009.1 3.0
01/03:30pm 10.5 8.7 9.4 93 0.6 W 9 17 5 9 1008.8 1008.9 3.0
01/03:00pm 10.4 8.2 9.3 93 0.6 W 11 20 6 11 1008.7 1008.8 2.6
01/02:30pm 10.8 9.0 9.4 91 0.7 WNW 9 15 5 8 1008.6 1008.7 2.0
01/02:00pm 10.4 8.6 9.3 93 0.6 WNW 9 13 5 7 1008.3 1008.4 2.0
01/01:30pm 10.3 8.1 9.5 95 0.4 WNW 11 20 6 11 1008.7 1008.8 1.6
01/01:00pm 10.1 6.7 9.2 94 0.5 W 17 24 9 13 1009.1 1009.2 1.0
01/12:30pm 11.9 7.4 8.6 80 1.7 W 22 35 12 19 1008.7 1008.8 0.6
01/12:00pm 12.0 9.0 9.4 84 1.3 WNW 15 24 8 13 1008.6 1008.7 0.6
01/11:30am 11.7 8.3 9.3 85 1.2 NW 17 26 9 14 1008.6 1008.7 0.6
01/11:00am 11.5 8.6 9.8 89 0.9 NW 15 24 8 13 1008.7 1008.8 0.6
01/10:30am 10.6 8.4 9.2 91 0.7 NW 11 17 6 9 1008.8 1008.9 0.6
01/10:00am 10.0 8.0 8.8 92 0.6 NNW 9 17 5 9 1008.9 1009.0 0.6
01/09:30am 9.3 7.2 8.2 93 0.5 NNW 9 17 5 9 1008.9 1009.1 0.4
01/09:00am 9.1 6.1 7.7 91 0.7 N 13 19 7 10 1008.9 1009.1 2.4
01/08:30am 9.4 7.0 7.0 85 1.1 NW 9 15 5 8 1009.1 1009.3 0.8
01/08:00am 10.3 7.7 5.9 74 2.1 NW 9 19 5 10 1008.7 1008.9 0.2
01/07:30am 11.8 8.1 4.3 60 3.4 NW 13 26 7 14 1009.0 1009.2 0.0
01/07:00am 12.1 9.5 4.1 58 3.7 NW 7 11 4 6 1008.5 1008.7 0.0
01/06:30am 12.4 9.0 3.9 56 3.9 W 11 19 6 10 1008.6 1008.8 0.0
01/06:00am 13.0 10.2 3.4 52 4.4 WSW 7 15 4 8 1008.3 1008.5 0.0
01/05:30am 14.6 11.4 2.8 45 5.3 NNW 9 15 5 8 1008.3 1008.5 0.0
01/05:00am 15.0 11.4 2.9 44 5.5 NNW 11 20 6 11 1007.8 1008.0 0.0
01/04:30am 15.5 9.8 2.7 42 5.8 NW 22 33 12 18 1007.7 1007.9 0.0
01/04:00am 16.0 11.1 2.1 39 6.3 N 17 26 9 14 1006.9 1007.2 0.0
01/03:30am 15.7 10.9 2.5 41 6.0 N 17 26 9 14 1006.8 1007.1 0.0
01/03:00am 15.6 11.2 2.7 42 5.9 N 15 24 8 13 1007.2 1007.4 0.0
01/02:30am 14.7 9.7 3.8 48 5.0 N 19 24 10 13 1007.7 1007.9 0.0
01/02:00am 14.9 9.1 4.3 49 5.0 N 24 33 13 18 1008.0 1008.2 0.0
01/01:30am 15.0 8.8 4.4 49 5.0 N 26 35 14 19 1008.6 1008.8 0.0
01/01:00am 15.5 9.3 4.3 47 5.3 N 26 41 14 22 1008.6 1008.8 0.0
01/12:30am 15.9 8.6 4.3 46 5.5 N 32 46 17 25 1009.0 1009.2 0.0
01/12:12am 16.3 9.7 4.4 45 5.6 N 28 46 15 25 1009.0 1009.2 0.0
01/12:00am 16.3 9.4 4.7 46 5.6 N 30 43 16 23 1009.2 1009.5 0.0
 
Date/Time
EST
Tmp

°C
App
Tmp
°C
Dew
Point
°C
Rel
Hum
%
Delta-T

°C
Wind Press
QNH
hPa
Press
MSL
hPa
Rain
since
9 am
mm
Dir
 
Spd
km/h
Gust
km/h
Spd
kts
Gust
kts
31/11:30pm 16.6 9.7 4.6 45 5.7 N 30 43 16 23 1009.2 1009.5 0.0
31/11:00pm 16.7 10.6 4.7 45 5.8 N 26 41 14 22 1009.7 1010.0 0.0
31/10:30pm 17.1 11.4 4.8 44 5.9 N 24 35 13 19 1009.8 1010.1 0.0
31/10:00pm 17.1 10.0 5.4 46 5.7 N 32 43 17 23 1009.7 1010.0 0.0
31/09:30pm 17.4 11.0 5.4 45 5.9 N 28 41 15 22 1010.1 1010.4 0.0
31/09:00pm 16.9 11.8 6.1 49 5.3 N 22 35 12 19 1010.5 1010.8 0.0
31/08:30pm 16.4 12.4 6.5 52 4.9 N 17 24 9 13 1011.7 1011.9 0.0
31/08:00pm 14.8 12.5 7.6 62 3.6 NNE 9 17 5 9 1012.3 1012.5 0.0
31/07:30pm 14.4 12.2 7.9 65 3.3 NNE 9 13 5 7 1012.3 1012.5 0.0
31/07:00pm 14.6 12.4 7.9 64 3.4 NE 9 13 5 7 1012.5 1012.7 0.0
31/06:30pm 14.9 12.3 7.9 63 3.5 NE 11 15 6 8 1012.7 1013.0 0.0
31/06:00pm 15.7 12.7 7.5 58 4.1 NNE 13 19 7 10 1012.6 1012.8 0.0
31/05:30pm 16.5 12.6 7.2 54 4.7 N 17 26 9 14 1012.7 1013.0 0.0
31/05:00pm 17.8 13.7 6.0 46 5.9 N 17 22 9 12 1013.0 1013.3 0.0
31/04:30pm 18.4 15.3 7.2 48 5.7 N 13 22 7 12 1013.0 1013.3 0.0
31/04:00pm 18.6 14.5 6.1 44 6.2 N 17 26 9 14 1013.1 1013.4 0.0
31/03:30pm 18.6 15.1 7.1 47 5.9 N 15 22 8 12 1013.4 1013.7 0.0
31/03:00pm 18.6 15.2 6.1 44 6.2 N 13 20 7 11 1013.6 1013.9 0.0
31/02:30pm 19.0 15.2 7.4 47 6.0 N 17 28 9 15 1014.0 1014.3 0.0
31/02:00pm 18.2 14.1 6.4 46 5.9 N 17 28 9 15 1014.3 1014.6 0.0
31/01:30pm 17.9 13.3 5.8 45 6.0 N 19 30 10 16 1014.8 1015.1 0.0
31/01:00pm 18.7 13.4 4.8 40 6.8 N 22 33 12 18 1015.2 1015.5 0.0
31/12:30pm 17.9 12.3 5.2 43 6.2 NNW 24 37 13 20 1015.5 1015.8 0.0
31/12:00pm 18.0 11.6 5.2 43 6.2 NNW 28 43 15 23 1016.1 1016.3 0.0
31/11:30am 18.4 12.5 5.6 43 6.3 NNW 26 43 14 23 1016.6 1016.9 0.0
31/11:00am 18.4 12.1 5.9 44 6.2 NNW 28 44 15 24 1016.9 1017.2 0.0
31/10:30am 18.0 12.1 5.9 45 6.0 NNW 26 35 14 19 1017.1 1017.4 0.0
31/10:00am 17.4 12.0 6.3 48 5.5 N 24 37 13 20 1017.3 1017.6 0.0
31/09:30am 16.5 11.0 6.1 50 5.1 N 24 39 13 21 1017.5 1017.8 0.0
31/09:00am 15.7 10.5 5.3 50 5.0 N 22 33 12 18 1017.7 1018.0 0.0
31/08:30am 14.3 9.5 5.4 55 4.2 N 20 30 11 16 1017.8 1018.1 0.0
31/08:00am 13.3 9.1 5.5 59 3.7 N 17 24 9 13 1018.1 1018.4 0.0
31/07:30am 12.2 7.9 5.4 63 3.2 N 17 22 9 12 1018.0 1018.3 0.0
31/07:00am 11.7 7.4 5.3 65 3.0 N 17 24 9 13 1018.0 1018.3 0.0
31/06:30am 11.1 6.9 5.6 69 2.6 N 17 22 9 12 1017.9 1018.2 0.0
31/06:00am 9.2 6.6 5.9 80 1.5 N 9 13 5 7 1018.0 1018.3 0.0
31/05:30am 9.0 5.9 5.7 80 1.5 N 11 13 6 7 1017.9 1018.2 0.0
31/05:00am 10.5 7.2 6.3 75 2.0 N 13 17 7 9 1017.8 1018.1 0.0
31/04:30am 9.8 6.9 6.5 80 1.6 N 11 17 6 9 1017.7 1018.0 0.0
31/04:00am 9.2 5.9 6.5 83 1.3 N 13 17 7 9 1018.0 1018.3 0.0
31/03:30am 9.3 6.0 6.6 83 1.3 N 13 17 7 9 1018.3 1018.6 0.0
31/03:00am 8.5 5.9 6.1 85 1.1 NNW 9 11 5 6 1018.7 1019.0 0.0
31/02:30am 9.3 6.4 6.4 82 1.4 N 11 13 6 7 1018.8 1019.1 0.0
31/02:00am 10.0 6.7 6.5 79 1.7 N 13 17 7 9 1019.0 1019.3 0.0
31/01:30am 10.2 7.0 6.7 79 1.7 N 13 17 7 9 1019.2 1019.5 0.0
31/01:00am 9.8 6.6 6.7 81 1.5 N 13 19 7 10 1019.5 1019.8 0.0
31/12:30am 9.6 6.3 6.5 81 1.5 N 13 17 7 9 1019.8 1020.2 0.0
31/12:00am 9.8 6.1 6.5 80 1.6 N 15 17 8 9 1020.0 1020.4 0.0
 
Date/Time
EST
Tmp

°C
App
Tmp
°C
Dew
Point
°C
Rel
Hum
%
Delta-T

°C
Wind Press
QNH
hPa
Press
MSL
hPa
Rain
since
9 am
mm
Dir
 
Spd
km/h
Gust
km/h
Spd
kts
Gust
kts
30/11:30pm 10.0 6.7 6.3 78 1.7 N 13 17 7 9 1020.3 1020.7 0.0
30/11:00pm 10.0 6.7 6.2 77 1.8 N 13 15 7 8 1020.5 1020.8 0.0
30/10:30pm 10.2 6.9 6.4 77 1.8 N 13 17 7 9 1020.9 1021.2 0.0
30/10:00pm 10.1 6.8 6.4 78 1.7 N 13 17 7 9 1021.2 1021.5 0.0
30/09:30pm 10.7 7.5 6.8 77 1.9 N 13 15 7 8 1021.5 1021.8 0.0
30/09:00pm 10.7 8.0 7.2 79 1.7 N 11 15 6 8 1021.6 1021.9 0.0
30/08:30pm 10.5 8.1 7.0 79 1.7 N 9 13 5 7 1021.7 1022.0 0.0
30/08:00pm 11.2 8.9 7.3 77 1.9 N 9 9 5 5 1021.7 1022.0 0.0
30/07:30pm 12.5 10.8 7.4 71 2.5 N 6 7 3 4 1021.6 1021.9 0.0
30/07:00pm 12.3 10.4 7.6 73 2.3 N 7 11 4 6 1021.5 1021.8 0.0
30/06:30pm 13.5 11.9 7.9 69 2.8 N 6 7 3 4 1021.4 1021.7 0.0
30/06:00pm 15.0 13.3 7.5 61 3.7 N 6 7 3 4 1021.4 1021.7 0.0
30/05:30pm 16.7 15.0 7.6 55 4.6 NNW 6 9 3 5 1021.5 1021.8 0.0
30/05:00pm 17.4 15.2 7.7 53 4.9 NW 9 13 5 7 1021.6 1021.9 0.0
30/04:30pm 18.1 15.7 7.2 49 5.5 WNW 9 15 5 8 1021.5 1021.8 0.0
30/04:00pm 18.4 16.1 7.5 49 5.6 NNW 9 17 5 9 1021.5 1021.8 0.0
30/03:30pm 18.5 15.8 7.3 48 5.7 NW 11 19 6 10 1021.5 1021.8 0.0
30/03:00pm 18.5 15.8 7.3 48 5.7 NNW 11 17 6 9 1021.5 1021.8 0.0
30/02:30pm 18.3 15.9 8.6 53 5.1 NW 11 19 6 10 1021.8 1022.1 0.0
30/02:00pm 18.3 15.5 8.6 53 5.1 NW 13 19 7 10 1022.1 1022.4 0.0
30/01:30pm 18.0 15.6 8.6 54 4.9 NW 11 20 6 11 1022.3 1022.6 0.0
30/01:00pm 17.7 15.4 9.1 57 4.5 NW 11 19 6 10 1022.8 1023.1 0.0
30/12:30pm 17.1 16.1 10.2 64 3.7 WNW 6 17 3 9 1023.2 1023.5 0.0
30/12:00pm 17.2 14.4 8.6 57 4.5 NNW 13 22 7 12 1023.7 1024.1 0.0
30/11:30am 15.5 14.7 11.1 75 2.4 SE 6 9 3 5 1024.1 1024.5 0.0
30/11:00am 14.2 13.2 10.4 78 2.0 SSE 6 9 3 5 1024.4 1024.8 0.0
30/10:30am 13.1 12.0 10.1 82 1.6 SSE 6 7 3 4 1024.7 1025.1 0.0
30/10:00am 11.6 10.5 9.9 89 0.9 SE 6 9 3 5 1025.2 1025.5 0.0
30/09:30am 10.3 10.1 10.3 100 0.0 E 2 6 1 3 1025.6 1025.9 0.0
30/09:00am 8.0 6.8 8.0 100 0.0 NE 4 7 2 4 1025.8 1026.1 0.0
30/08:30am 7.7 6.0 7.7 100 0.0 NE 6 7 3 4 1025.9 1026.2 0.0
30/08:00am 7.3 5.9 7.2 99 0.0 NNE 4 9 2 5 1026.1 1026.4 0.0
30/07:30am 7.4 6.0 7.1 98 0.1 N 4 7 2 4 1025.9 1026.2 0.0
30/07:00am 7.7 6.7 7.3 97 0.2 N 2 4 1 2 1025.7 1026.0 0.0
30/06:30am 7.8 6.1 7.4 97 0.2 NNE 6 7 3 4 1025.5 1025.8 0.0
30/06:00am 8.2 6.6 7.8 97 0.2 NE 6 11 3 6 1025.2 1025.5 0.0
30/05:30am 8.5 6.9 8.2 98 0.1 NNE 6 9 3 5 1025.0 1025.3 0.0
30/05:00am 8.6 7.1 8.5 99 0.0 NE 6 7 3 4 1025.0 1025.3 0.0
30/04:30am 8.8 7.4 8.8 100 0.0 NE 6 11 3 6 1025.1 1025.4 0.0
30/04:00am 8.9 7.5 8.9 100 0.0 NNE 6 7 3 4 1025.3 1025.6 0.0
30/03:30am 9.2 7.7 9.2 100 0.0 ENE 7 9 4 5 1025.5 1025.8 0.0
30/03:00am 8.7 8.0 8.7 100 0.0 NNE 2 4 1 2 1025.9 1026.2 0.0
30/02:30am 9.1 8.5 9.1 100 0.0 E 2 4 1 2 1026.1 1026.4 0.0
30/02:00am 9.1 8.2 9.1 100 0.0 E 4 7 2 4 1026.3 1026.6 0.0
30/01:30am 8.9 7.9 8.9 100 0.0 E 4 7 2 4 1026.6 1026.9 0.0
30/01:00am 9.0 7.4 8.9 99 0.0 E 7 11 4 6 1026.7 1027.0 0.0
30/12:30am 9.5 8.6 9.2 98 0.2 E 4 6 2 3 1026.9 1027.3 0.0
30/12:00am 9.5 8.3 9.4 99 0.0 E 6 7 3 4 1027.2 1027.6 0.0
 
Date/Time
EST
Tmp

°C
App
Tmp
°C
Dew
Point
°C
Rel
Hum
%
Delta-T

°C
Wind Press
QNH
hPa
Press
MSL
hPa
Rain
since
9 am
mm
Dir
 
Spd
km/h
Gust
km/h
Spd
kts
Gust
kts
29/11:30pm 9.2 8.2 8.9 98 0.1 ENE 4 6 2 3 1027.4 1027.8 0.0
29/11:00pm 9.2 7.8 8.9 98 0.1 E 6 9 3 5 1027.6 1028.0 0.0
29/10:30pm 9.3 8.3 9.0 98 0.1 E 4 6 2 3 1027.8 1028.2 0.0
29/10:00pm 8.7 7.2 8.3 97 0.2 E 6 7 3 4 1028.0 1028.4 0.0
29/09:30pm 9.1 7.6 8.6 97 0.2 E 6 7 3 4 1028.2 1028.6 0.0
29/09:00pm 8.1 6.4 7.5 96 0.3 ENE 6 7 3 4 1028.1 1028.5 0.0
29/08:30pm 7.9 6.5 7.1 95 0.4 ENE 4 6 2 3 1028.1 1028.5 0.0
29/08:00pm 8.6 7.0 7.8 95 0.4 ENE 6 7 3 4 1028.1 1028.5 0.0
29/07:30pm 8.4 7.1 7.5 94 0.4 ENE 4 6 2 3 1028.0 1028.4 0.0
29/07:00pm 8.8 7.4 7.4 91 0.7 ENE 4 6 2 3 1027.9 1028.3 0.0
29/06:30pm 9.3 7.4 7.4 88 0.9 E 7 9 4 5 1027.8 1028.2 0.0
29/06:00pm 10.3 8.6 8.2 87 1.0 E 7 11 4 6 1027.7 1028.1 0.0
29/05:30pm 10.9 8.4 8.3 84 1.3 E 11 15 6 8 1027.6 1028.0 0.0

Latest Capital City Observations: Canberra | Sydney | Melbourne | Brisbane | Adelaide | Perth | Hobart | Darwin

Other Formats:

Comma delimited format used in spreadsheet applications
http://www.bom.gov.au/fwo/IDV60901/IDV60901.94863.axf

JavaScript Object Notation format (JSON) in row-major order
http://www.bom.gov.au/fwo/IDV60901/IDV60901.94863.json